sensor_id;sensor_type;location;lat;lon;timestamp;pressure;altitude;pressure_sealevel;temperature;humidity
33635;BME280;19972;54.360;10.076;2022-10-31T00:00:47;102765.47;;;9.57;91.96
33635;BME280;19972;54.360;10.076;2022-10-31T00:03:14;102760.25;;;9.54;91.98
33635;BME280;19972;54.360;10.076;2022-10-31T00:05:48;102752.56;;;9.43;92.08
33635;BME280;19972;54.360;10.076;2022-10-31T00:08:16;102748.19;;;9.44;92.13
33635;BME280;19972;54.360;10.076;2022-10-31T00:10:44;102747.28;;;9.43;92.20
33635;BME280;19972;54.360;10.076;2022-10-31T00:13:11;102735.91;;;9.40;92.22
33635;BME280;19972;54.360;10.076;2022-10-31T00:15:39;102745.53;;;9.42;92.10
33635;BME280;19972;54.360;10.076;2022-10-31T00:18:07;102754.25;;;9.47;92.04
33635;BME280;19972;54.360;10.076;2022-10-31T00:20:34;102770.16;;;9.47;92.10
33635;BME280;19972;54.360;10.076;2022-10-31T00:23:02;102775.22;;;9.57;92.00
33635;BME280;19972;54.360;10.076;2022-10-31T00:25:36;102779.53;;;9.61;91.87
33635;BME280;19972;54.360;10.076;2022-10-31T00:28:04;102780.22;;;9.67;91.83
33635;BME280;19972;54.360;10.076;2022-10-31T00:30:31;102784.50;;;9.71;91.75
33635;BME280;19972;54.360;10.076;2022-10-31T00:32:57;102779.06;;;9.77;91.69
33635;BME280;19972;54.360;10.076;2022-10-31T00:35:25;102780.81;;;9.78;91.53
33635;BME280;19972;54.360;10.076;2022-10-31T00:37:52;102775.56;;;9.75;91.64
33635;BME280;19972;54.360;10.076;2022-10-31T00:40:18;102775.66;;;9.72;91.65
33635;BME280;19972;54.360;10.076;2022-10-31T00:42:45;102769.50;;;9.72;91.72
33635;BME280;19972;54.360;10.076;2022-10-31T00:45:11;102740.44;;;9.67;91.80
33635;BME280;19972;54.360;10.076;2022-10-31T00:47:38;102744.41;;;9.84;91.66
33635;BME280;19972;54.360;10.076;2022-10-31T00:50:05;102752.00;;;9.96;91.41
33635;BME280;19972;54.360;10.076;2022-10-31T00:52:32;102749.66;;;9.85;91.47
33635;BME280;19972;54.360;10.076;2022-10-31T00:54:59;102759.22;;;9.91;91.47
33635;BME280;19972;54.360;10.076;2022-10-31T00:57:25;102772.44;;;9.92;91.43
33635;BME280;19972;54.360;10.076;2022-10-31T00:59:52;102721.41;;;9.83;91.93
33635;BME280;19972;54.360;10.076;2022-10-31T01:02:18;102700.53;;;9.72;92.06
33635;BME280;19972;54.360;10.076;2022-10-31T01:04:45;102717.44;;;9.68;91.80
33635;BME280;19972;54.360;10.076;2022-10-31T01:07:11;102702.66;;;9.59;91.95
33635;BME280;19972;54.360;10.076;2022-10-31T01:09:40;102707.88;;;9.62;91.91
33635;BME280;19972;54.360;10.076;2022-10-31T01:12:06;102712.19;;;9.66;91.90
33635;BME280;19972;54.360;10.076;2022-10-31T01:14:33;102713.94;;;9.66;91.92
33635;BME280;19972;54.360;10.076;2022-10-31T01:17:00;102719.97;;;9.72;91.84
33635;BME280;19972;54.360;10.076;2022-10-31T01:19:26;102735.59;;;9.82;91.73
33635;BME280;19972;54.360;10.076;2022-10-31T01:21:54;102730.78;;;9.96;91.53
33635;BME280;19972;54.360;10.076;2022-10-31T01:24:21;102730.78;;;9.96;91.54
33635;BME280;19972;54.360;10.076;2022-10-31T01:26:47;102747.13;;;10.10;91.26
33635;BME280;19972;54.360;10.076;2022-10-31T01:29:14;102736.41;;;9.85;91.66
33635;BME280;19972;54.360;10.076;2022-10-31T01:31:40;102712.09;;;9.69;91.86
33635;BME280;19972;54.360;10.076;2022-10-31T01:34:08;102692.03;;;9.59;92.09
33635;BME280;19972;54.360;10.076;2022-10-31T01:36:38;102693.88;;;9.57;92.13
33635;BME280;19972;54.360;10.076;2022-10-31T01:39:13;102691.47;;;9.48;92.43
33635;BME280;19972;54.360;10.076;2022-10-31T01:41:43;102728.13;;;9.65;91.87
33635;BME280;19972;54.360;10.076;2022-10-31T01:46:50;102811.00;;;10.93;90.28
33635;BME280;19972;54.360;10.076;2022-10-31T01:49:40;102818.50;;;11.34;89.80
33635;BME280;19972;54.360;10.076;2022-10-31T01:52:29;102805.56;;;11.24;89.91
33635;BME280;19972;54.360;10.076;2022-10-31T01:55:04;102792.13;;;11.53;89.72
33635;BME280;19972;54.360;10.076;2022-10-31T01:57:32;102791.38;;;11.50;89.71
33635;BME280;19972;54.360;10.076;2022-10-31T02:00:06;102789.31;;;11.58;89.63
33635;BME280;19972;54.360;10.076;2022-10-31T02:02:34;102796.84;;;11.70;89.56
33635;BME280;19972;54.360;10.076;2022-10-31T02:05:06;102795.59;;;11.80;89.60
33635;BME280;19972;54.360;10.076;2022-10-31T02:07:39;102829.28;;;11.81;89.37
33635;BME280;19972;54.360;10.076;2022-10-31T02:10:08;102833.63;;;12.09;89.15
33635;BME280;19972;54.360;10.076;2022-10-31T02:12:35;102825.16;;;11.98;89.25
33635;BME280;19972;54.360;10.076;2022-10-31T02:15:03;102828.53;;;12.03;89.24
33635;BME280;19972;54.360;10.076;2022-10-31T02:17:31;102819.38;;;12.10;89.17
33635;BME280;19972;54.360;10.076;2022-10-31T02:20:18;102826.16;;;12.19;89.07
33635;BME280;19972;54.360;10.076;2022-10-31T02:23:20;102835.09;;;12.18;89.12
33635;BME280;19972;54.360;10.076;2022-10-31T02:26:27;102814.72;;;12.17;89.07
33635;BME280;19972;54.360;10.076;2022-10-31T02:32:21;102830.16;;;12.07;89.13
33635;BME280;19972;54.360;10.076;2022-10-31T02:37:36;102811.66;;;12.27;89.08
33635;BME280;19972;54.360;10.076;2022-10-31T02:40:14;102809.56;;;12.12;89.19
33635;BME280;19972;54.360;10.076;2022-10-31T02:42:52;102807.22;;;12.03;89.29
33635;BME280;19972;54.360;10.076;2022-10-31T02:45:31;102828.19;;;12.12;89.25
33635;BME280;19972;54.360;10.076;2022-10-31T02:48:08;102816.50;;;12.16;89.27
33635;BME280;19972;54.360;10.076;2022-10-31T02:50:39;102822.34;;;12.26;89.18
33635;BME280;19972;54.360;10.076;2022-10-31T02:53:08;102810.72;;;12.28;89.18
33635;BME280;19972;54.360;10.076;2022-10-31T03:09:13;102819.38;;;12.10;89.43
33635;BME280;19972;54.360;10.076;2022-10-31T03:11:50;102822.56;;;11.96;89.50
33635;BME280;19972;54.360;10.076;2022-10-31T03:14:26;102815.03;;;12.07;89.47
33635;BME280;19972;54.360;10.076;2022-10-31T03:16:59;102815.81;;;12.11;89.42
33635;BME280;19972;54.360;10.076;2022-10-31T03:19:43;102809.31;;;11.95;89.52
33635;BME280;19972;54.360;10.076;2022-10-31T03:22:21;102805.94;;;11.89;89.71
33635;BME280;19972;54.360;10.076;2022-10-31T03:24:49;102813.66;;;11.72;89.83
33635;BME280;19972;54.360;10.076;2022-10-31T03:27:18;102839.50;;;11.94;89.59
33635;BME280;19972;54.360;10.076;2022-10-31T03:29:47;102836.91;;;11.92;89.66
33635;BME280;19972;54.360;10.076;2022-10-31T03:32:16;102844.34;;;11.82;89.73
33635;BME280;19972;54.360;10.076;2022-10-31T03:34:45;102854.81;;;11.87;89.56
33635;BME280;19972;54.360;10.076;2022-10-31T03:37:14;102862.00;;;11.85;89.61
33635;BME280;19972;54.360;10.076;2022-10-31T03:39:45;102885.94;;;12.10;89.36
33635;BME280;19972;54.360;10.076;2022-10-31T03:42:20;102822.41;;;12.01;89.90
33635;BME280;19972;54.360;10.076;2022-10-31T03:45:02;102863.41;;;11.95;89.57
33635;BME280;19972;54.360;10.076;2022-10-31T03:47:30;102872.63;;;12.10;89.49
33635;BME280;19972;54.360;10.076;2022-10-31T03:49:57;102853.09;;;11.86;89.85
33635;BME280;19972;54.360;10.076;2022-10-31T03:53:01;102869.28;;;12.05;89.54
33635;BME280;19972;54.360;10.076;2022-10-31T03:55:40;102881.69;;;11.79;89.72
33635;BME280;19972;54.360;10.076;2022-10-31T03:58:09;102877.28;;;11.78;89.84
33635;BME280;19972;54.360;10.076;2022-10-31T04:00:40;102895.81;;;11.81;89.74
33635;BME280;19972;54.360;10.076;2022-10-31T04:03:27;102874.09;;;11.94;89.78
33635;BME280;19972;54.360;10.076;2022-10-31T04:05:58;102887.09;;;11.76;89.89
33635;BME280;19972;54.360;10.076;2022-10-31T04:08:28;102915.66;;;11.71;89.96
33635;BME280;19972;54.360;10.076;2022-10-31T04:10:57;102958.03;;;12.04;89.68
33635;BME280;19972;54.360;10.076;2022-10-31T04:13:28;102952.66;;;11.79;89.96
33635;BME280;19972;54.360;10.076;2022-10-31T04:15:56;102971.25;;;11.80;89.84
33635;BME280;19972;54.360;10.076;2022-10-31T04:18:23;102996.06;;;11.81;89.83
33635;BME280;19972;54.360;10.076;2022-10-31T04:21:00;103050.81;;;11.89;89.74
33635;BME280;19972;54.360;10.076;2022-10-31T04:23:27;103070.38;;;11.88;89.79
33635;BME280;19972;54.360;10.076;2022-10-31T04:25:54;103076.78;;;11.83;89.89
33635;BME280;19972;54.360;10.076;2022-10-31T04:28:20;103092.94;;;12.05;90.04
33635;BME280;19972;54.360;10.076;2022-10-31T04:30:47;103130.75;;;12.14;89.70
33635;BME280;19972;54.360;10.076;2022-10-31T04:33:13;103123.78;;;11.82;90.06
33635;BME280;19972;54.360;10.076;2022-10-31T04:35:40;103133.16;;;11.96;90.18
33635;BME280;19972;54.360;10.076;2022-10-31T04:38:06;103204.38;;;12.17;89.32
33635;BME280;19972;54.360;10.076;2022-10-31T04:40:33;103186.66;;;11.86;89.66
33635;BME280;19972;54.360;10.076;2022-10-31T04:42:59;103171.53;;;11.88;89.75
33635;BME280;19972;54.360;10.076;2022-10-31T04:45:26;103165.03;;;11.97;89.79
33635;BME280;19972;54.360;10.076;2022-10-31T04:47:52;103163.88;;;12.06;89.89
33635;BME280;19972;54.360;10.076;2022-10-31T04:50:19;103173.47;;;12.11;89.76
33635;BME280;19972;54.360;10.076;2022-10-31T04:52:46;103178.94;;;12.07;89.88
33635;BME280;19972;54.360;10.076;2022-10-31T04:55:13;103182.03;;;12.21;89.90
33635;BME280;19972;54.360;10.076;2022-10-31T04:57:41;103181.22;;;12.19;89.93
33635;BME280;19972;54.360;10.076;2022-10-31T05:00:09;103180.63;;;12.09;90.03
33635;BME280;19972;54.360;10.076;2022-10-31T05:02:50;103172.06;;;12.28;89.96
33635;BME280;19972;54.360;10.076;2022-10-31T05:05:19;103150.72;;;12.29;90.11
33635;BME280;19972;54.360;10.076;2022-10-31T05:07:47;103156.31;;;12.20;90.17
33635;BME280;19972;54.360;10.076;2022-10-31T05:10:17;103163.50;;;12.18;90.21
33635;BME280;19972;54.360;10.076;2022-10-31T05:12:49;103168.53;;;12.27;90.19
33635;BME280;19972;54.360;10.076;2022-10-31T05:15:17;103162.16;;;12.05;90.42
33635;BME280;19972;54.360;10.076;2022-10-31T05:17:44;103161.34;;;12.29;90.24
33635;BME280;19972;54.360;10.076;2022-10-31T05:20:12;103166.25;;;12.15;90.32
33635;BME280;19972;54.360;10.076;2022-10-31T05:22:43;103162.81;;;12.39;90.18
33635;BME280;19972;54.360;10.076;2022-10-31T05:25:11;103131.47;;;12.20;90.37
33635;BME280;19972;54.360;10.076;2022-10-31T05:27:42;103052.72;;;12.12;90.78
33635;BME280;19972;54.360;10.076;2022-10-31T05:30:10;103096.00;;;12.19;90.39
33635;BME280;19972;54.360;10.076;2022-10-31T05:32:38;103059.50;;;12.23;90.46
33635;BME280;19972;54.360;10.076;2022-10-31T05:35:06;103029.53;;;12.16;90.48
33635;BME280;19972;54.360;10.076;2022-10-31T05:37:37;103001.63;;;12.01;90.75
33635;BME280;19972;54.360;10.076;2022-10-31T05:40:06;103013.38;;;12.21;90.55
33635;BME280;19972;54.360;10.076;2022-10-31T05:42:34;103015.88;;;12.25;90.51
33635;BME280;19972;54.360;10.076;2022-10-31T05:45:01;103007.31;;;12.17;90.65
33635;BME280;19972;54.360;10.076;2022-10-31T05:47:27;103020.19;;;12.29;90.57
33635;BME280;19972;54.360;10.076;2022-10-31T05:49:54;103007.31;;;12.17;90.63
33635;BME280;19972;54.360;10.076;2022-10-31T05:52:20;103014.25;;;12.21;90.59
33635;BME280;19972;54.360;10.076;2022-10-31T05:54:47;102979.97;;;12.12;90.76
33635;BME280;19972;54.360;10.076;2022-10-31T05:57:13;102987.31;;;12.30;90.59
33635;BME280;19972;54.360;10.076;2022-10-31T05:59:40;102976.09;;;12.21;90.63
33635;BME280;19972;54.360;10.076;2022-10-31T06:02:06;102969.25;;;12.13;90.67
33635;BME280;19972;54.360;10.076;2022-10-31T06:04:33;102962.66;;;11.99;90.88
33635;BME280;19972;54.360;10.076;2022-10-31T06:06:59;102985.00;;;11.95;90.89
33635;BME280;19972;54.360;10.076;2022-10-31T06:09:26;102993.19;;;11.88;90.89
33635;BME280;19972;54.360;10.076;2022-10-31T06:11:52;103006.28;;;11.95;90.84
33635;BME280;19972;54.360;10.076;2022-10-31T06:14:19;102997.16;;;12.02;90.74
33635;BME280;19972;54.360;10.076;2022-10-31T06:16:45;103003.94;;;11.85;90.88
33635;BME280;19972;54.360;10.076;2022-10-31T06:19:11;103012.09;;;11.79;90.94
33635;BME280;19972;54.360;10.076;2022-10-31T06:21:38;103032.91;;;11.95;90.69
33635;BME280;19972;54.360;10.076;2022-10-31T06:24:04;103026.53;;;11.99;90.68
33635;BME280;19972;54.360;10.076;2022-10-31T06:26:31;103016.09;;;11.93;90.76
33635;BME280;19972;54.360;10.076;2022-10-31T06:28:57;103017.41;;;11.79;90.88
33635;BME280;19972;54.360;10.076;2022-10-31T06:31:29;103016.31;;;11.86;90.76
33635;BME280;19972;54.360;10.076;2022-10-31T06:33:56;103018.75;;;11.93;90.76
33635;BME280;19972;54.360;10.076;2022-10-31T06:36:22;103016.25;;;11.88;90.79
33635;BME280;19972;54.360;10.076;2022-10-31T06:38:49;103024.88;;;11.96;90.66
33635;BME280;19972;54.360;10.076;2022-10-31T06:41:16;103070.94;;;11.98;90.58
33635;BME280;19972;54.360;10.076;2022-10-31T06:43:42;103097.53;;;12.00;90.62
33635;BME280;19972;54.360;10.076;2022-10-31T06:46:11;103109.25;;;11.94;90.69
33635;BME280;19972;54.360;10.076;2022-10-31T06:48:40;103126.91;;;11.97;90.71
33635;BME280;19972;54.360;10.076;2022-10-31T06:51:06;103128.81;;;12.20;90.50
33635;BME280;19972;54.360;10.076;2022-10-31T06:53:33;103124.28;;;11.95;90.75
33635;BME280;19972;54.360;10.076;2022-10-31T06:55:59;103140.66;;;12.11;90.62
33635;BME280;19972;54.360;10.076;2022-10-31T06:58:26;103113.44;;;12.01;90.81
33635;BME280;19972;54.360;10.076;2022-10-31T07:00:52;103126.69;;;12.03;90.84
33635;BME280;19972;54.360;10.076;2022-10-31T07:03:19;103105.19;;;12.09;90.84
33635;BME280;19972;54.360;10.076;2022-10-31T07:05:46;103074.69;;;12.19;90.74
33635;BME280;19972;54.360;10.076;2022-10-31T07:08:13;103038.78;;;12.04;90.90
33635;BME280;19972;54.360;10.076;2022-10-31T07:10:41;103046.22;;;11.95;91.07
33635;BME280;19972;54.360;10.076;2022-10-31T07:13:12;103068.81;;;11.81;91.17
33635;BME280;19972;54.360;10.076;2022-10-31T07:15:40;103071.50;;;12.08;90.95
33635;BME280;19972;54.360;10.076;2022-10-31T07:18:08;103062.22;;;11.93;91.07
33635;BME280;19972;54.360;10.076;2022-10-31T07:20:35;103068.47;;;11.92;91.13
33635;BME280;19972;54.360;10.076;2022-10-31T07:23:01;103068.72;;;11.84;91.22
33635;BME280;19972;54.360;10.076;2022-10-31T07:25:28;103077.81;;;12.05;91.00
33635;BME280;19972;54.360;10.076;2022-10-31T07:27:55;103042.66;;;12.22;90.94
33635;BME280;19972;54.360;10.076;2022-10-31T07:30:22;103030.78;;;12.06;90.95
33635;BME280;19972;54.360;10.076;2022-10-31T07:32:50;103023.16;;;12.20;90.79
33635;BME280;19972;54.360;10.076;2022-10-31T07:35:19;103000.25;;;12.16;90.98
33635;BME280;19972;54.360;10.076;2022-10-31T07:37:47;102976.22;;;12.42;90.81
33635;BME280;19972;54.360;10.076;2022-10-31T07:40:14;102951.81;;;12.55;90.83
33635;BME280;19972;54.360;10.076;2022-10-31T07:42:42;102931.22;;;12.58;90.66
33635;BME280;19972;54.360;10.076;2022-10-31T07:45:13;102924.69;;;12.67;90.51
33635;BME280;19972;54.360;10.076;2022-10-31T07:47:53;102915.94;;;12.63;90.57
33635;BME280;19972;54.360;10.076;2022-10-31T07:50:22;102908.25;;;12.56;90.63
33635;BME280;19972;54.360;10.076;2022-10-31T07:55:27;102877.06;;;12.58;90.60
33635;BME280;19972;54.360;10.076;2022-10-31T07:57:58;102858.19;;;12.17;91.03
33635;BME280;19972;54.360;10.076;2022-10-31T08:00:26;102848.09;;;12.49;90.75
33635;BME280;19972;54.360;10.076;2022-10-31T08:03:11;102831.91;;;12.55;90.70
33635;BME280;19972;54.360;10.076;2022-10-31T08:05:38;102816.66;;;12.58;90.71
33635;BME280;19972;54.360;10.076;2022-10-31T08:08:05;102794.91;;;12.69;90.46
33635;BME280;19972;54.360;10.076;2022-10-31T08:10:33;102798.06;;;12.57;90.52
33635;BME280;19972;54.360;10.076;2022-10-31T08:13:04;102801.53;;;12.81;90.40
33635;BME280;19972;54.360;10.076;2022-10-31T08:15:31;102788.78;;;12.67;90.63
33635;BME280;19972;54.360;10.076;2022-10-31T08:17:57;102786.47;;;12.58;90.74
33635;BME280;19972;54.360;10.076;2022-10-31T08:20:24;102772.88;;;12.42;91.15
33635;BME280;19972;54.360;10.076;2022-10-31T08:23:02;102763.53;;;12.54;91.04
33635;BME280;19972;54.360;10.076;2022-10-31T08:25:30;102744.59;;;12.39;91.28
33635;BME280;19972;54.360;10.076;2022-10-31T08:28:04;102735.41;;;12.47;91.30
33635;BME280;19972;54.360;10.076;2022-10-31T08:30:33;102708.34;;;12.35;91.52
33635;BME280;19972;54.360;10.076;2022-10-31T08:33:01;102709.50;;;12.28;91.59
33635;BME280;19972;54.360;10.076;2022-10-31T08:35:28;102706.22;;;12.43;91.60
33635;BME280;19972;54.360;10.076;2022-10-31T08:37:55;102689.00;;;12.30;91.65
33635;BME280;19972;54.360;10.076;2022-10-31T08:40:24;102668.19;;;12.62;91.46
33635;BME280;19972;54.360;10.076;2022-10-31T08:43:05;102667.94;;;12.46;91.54
33635;BME280;19972;54.360;10.076;2022-10-31T08:45:33;102611.94;;;12.48;91.50
33635;BME280;19972;54.360;10.076;2022-10-31T08:48:03;102616.75;;;12.60;91.34
33635;BME280;19972;54.360;10.076;2022-10-31T08:50:32;102610.09;;;12.50;91.53
33635;BME280;19972;54.360;10.076;2022-10-31T08:53:04;102615.78;;;12.40;91.55
33635;BME280;19972;54.360;10.076;2022-10-31T08:55:33;102610.31;;;12.43;91.66
33635;BME280;19972;54.360;10.076;2022-10-31T08:58:01;102519.25;;;12.56;91.77
33635;BME280;19972;54.360;10.076;2022-10-31T09:00:28;102544.41;;;12.49;91.72
33635;BME280;19972;54.360;10.076;2022-10-31T09:02:59;102546.41;;;12.84;91.34
33635;BME280;19972;54.360;10.076;2022-10-31T09:05:26;102521.25;;;12.51;91.78
33635;BME280;19972;54.360;10.076;2022-10-31T09:07:57;102518.41;;;12.74;91.51
33635;BME280;19972;54.360;10.076;2022-10-31T09:10:25;102518.31;;;12.77;91.41
33635;BME280;19972;54.360;10.076;2022-10-31T09:12:57;102545.19;;;12.91;91.08
33635;BME280;19972;54.360;10.076;2022-10-31T09:15:25;102546.25;;;12.87;91.04
33635;BME280;19972;54.360;10.076;2022-10-31T09:17:51;102549.66;;;13.10;90.82
33635;BME280;19972;54.360;10.076;2022-10-31T09:20:19;102535.69;;;13.25;90.73
33635;BME280;19972;54.360;10.076;2022-10-31T09:22:45;102536.13;;;13.14;90.74
33635;BME280;19972;54.360;10.076;2022-10-31T09:25:12;102532.22;;;13.61;90.34
33635;BME280;19972;54.360;10.076;2022-10-31T09:27:38;102541.31;;;13.57;90.21
33635;BME280;19972;54.360;10.076;2022-10-31T09:30:05;102541.13;;;13.60;90.20
33635;BME280;19972;54.360;10.076;2022-10-31T09:32:32;102527.28;;;13.89;90.11
33635;BME280;19972;54.360;10.076;2022-10-31T09:34:58;102546.41;;;13.80;90.14
33635;BME280;19972;54.360;10.076;2022-10-31T09:37:25;102557.59;;;13.69;90.17
33635;BME280;19972;54.360;10.076;2022-10-31T09:39:51;102552.81;;;13.76;90.24
33635;BME280;19972;54.360;10.076;2022-10-31T09:45:38;102538.34;;;13.63;90.24
33635;BME280;19972;54.360;10.076;2022-10-31T09:48:15;102538.09;;;13.86;90.22
33635;BME280;19972;54.360;10.076;2022-10-31T09:51:08;102529.22;;;13.86;90.49
33635;BME280;19972;54.360;10.076;2022-10-31T09:53:39;102519.84;;;14.31;90.26
33635;BME280;19972;54.360;10.076;2022-10-31T09:56:11;102495.22;;;14.41;90.66
33635;BME280;19972;54.360;10.076;2022-10-31T09:58:43;102469.94;;;13.96;91.38
33635;BME280;19972;54.360;10.076;2022-10-31T10:03:57;102461.06;;;14.81;91.15
33635;BME280;19972;54.360;10.076;2022-10-31T10:06:28;102414.06;;;14.77;92.15
33635;BME280;19972;54.360;10.076;2022-10-31T10:08:56;102387.50;;;14.90;92.64
33635;BME280;19972;54.360;10.076;2022-10-31T10:11:46;102362.59;;;14.89;93.50
33635;BME280;19972;54.360;10.076;2022-10-31T10:22:50;102282.81;;;15.27;96.54
33635;BME280;19972;54.360;10.076;2022-10-31T10:25:23;102255.50;;;15.67;97.81
33635;BME280;19972;54.360;10.076;2022-10-31T10:30:54;102099.94;;;16.52;100.00
33635;BME280;19972;54.360;10.076;2022-10-31T10:33:36;102042.09;;;17.13;100.00
33635;BME280;19972;54.360;10.076;2022-10-31T10:36:08;101984.03;;;17.49;100.00
33635;BME280;19972;54.360;10.076;2022-10-31T10:39:02;101949.34;;;17.83;100.00
33635;BME280;19972;54.360;10.076;2022-10-31T10:41:32;101839.16;;;18.52;100.00
33635;BME280;19972;54.360;10.076;2022-10-31T10:44:00;101798.59;;;19.09;100.00
33635;BME280;19972;54.360;10.076;2022-10-31T10:46:34;101761.13;;;19.17;100.00
33635;BME280;19972;54.360;10.076;2022-10-31T10:49:40;101767.91;;;19.53;100.00
33635;BME280;19972;54.360;10.076;2022-10-31T10:55:16;101789.69;;;20.34;100.00
33635;BME280;19972;54.360;10.076;2022-10-31T11:00:26;101849.28;;;18.93;100.00
33635;BME280;19972;54.360;10.076;2022-10-31T11:02:54;101861.38;;;18.42;100.00
33635;BME280;19972;54.360;10.076;2022-10-31T11:07:54;101874.44;;;17.54;100.00
33635;BME280;19972;54.360;10.076;2022-10-31T11:10:21;101881.91;;;16.64;100.00
33635;BME280;19972;54.360;10.076;2022-10-31T11:13:01;101873.44;;;15.94;100.00
33635;BME280;19972;54.360;10.076;2022-10-31T11:15:32;101866.97;;;15.44;100.00
33635;BME280;19972;54.360;10.076;2022-10-31T11:17:59;101846.88;;;15.51;100.00
33635;BME280;19972;54.360;10.076;2022-10-31T11:20:32;101824.94;;;16.12;100.00
33635;BME280;19972;54.360;10.076;2022-10-31T11:23:03;101819.00;;;16.45;100.00
33635;BME280;19972;54.360;10.076;2022-10-31T11:25:30;101837.19;;;15.76;100.00
33635;BME280;19972;54.360;10.076;2022-10-31T11:28:09;101820.94;;;15.79;100.00
33635;BME280;19972;54.360;10.076;2022-10-31T11:30:44;101818.88;;;16.46;100.00
33635;BME280;19972;54.360;10.076;2022-10-31T11:33:32;101813.22;;;17.71;100.00
33635;BME280;19972;54.360;10.076;2022-10-31T11:36:02;101819.25;;;19.09;100.00
33635;BME280;19972;54.360;10.076;2022-10-31T11:38:34;101838.00;;;19.74;100.00
33635;BME280;19972;54.360;10.076;2022-10-31T11:41:11;101847.06;;;20.67;100.00
33635;BME280;19972;54.360;10.076;2022-10-31T11:43:45;101849.72;;;21.26;100.00
33635;BME280;19972;54.360;10.076;2022-10-31T11:46:17;101850.63;;;20.16;100.00
33635;BME280;19972;54.360;10.076;2022-10-31T11:48:49;101838.47;;;19.47;100.00
33635;BME280;19972;54.360;10.076;2022-10-31T11:51:25;101832.72;;;20.76;100.00
33635;BME280;19972;54.360;10.076;2022-10-31T11:53:55;101851.91;;;21.81;100.00
33635;BME280;19972;54.360;10.076;2022-10-31T11:56:38;101937.84;;;21.68;100.00
33635;BME280;19972;54.360;10.076;2022-10-31T11:59:15;101935.00;;;21.88;100.00
33635;BME280;19972;54.360;10.076;2022-10-31T12:01:48;101932.13;;;22.09;100.00
33635;BME280;19972;54.360;10.076;2022-10-31T12:04:16;101957.47;;;22.37;100.00
33635;BME280;19972;54.360;10.076;2022-10-31T12:06:44;101894.03;;;21.83;100.00
33635;BME280;19972;54.360;10.076;2022-10-31T12:09:26;101850.97;;;21.03;100.00
33635;BME280;19972;54.360;10.076;2022-10-31T12:12:35;101824.19;;;20.61;100.00
33635;BME280;19972;54.360;10.076;2022-10-31T12:15:22;101808.75;;;19.91;100.00
33635;BME280;19972;54.360;10.076;2022-10-31T12:23:57;101780.03;;;19.59;100.00
33635;BME280;19972;54.360;10.076;2022-10-31T12:26:34;101772.28;;;20.48;100.00
33635;BME280;19972;54.360;10.076;2022-10-31T12:29:26;101761.03;;;22.17;100.00
33635;BME280;19972;54.360;10.076;2022-10-31T12:34:41;101749.47;;;22.25;100.00
33635;BME280;19972;54.360;10.076;2022-10-31T12:37:30;101765.44;;;21.13;100.00
33635;BME280;19972;54.360;10.076;2022-10-31T12:43:11;101786.06;;;18.87;100.00
33635;BME280;19972;54.360;10.076;2022-10-31T12:51:24;101771.56;;;18.11;100.00
33635;BME280;19972;54.360;10.076;2022-10-31T12:59:33;101766.66;;;19.37;100.00
33635;BME280;19972;54.360;10.076;2022-10-31T13:02:09;101765.00;;;18.27;100.00
33635;BME280;19972;54.360;10.076;2022-10-31T13:04:56;101760.81;;;17.89;100.00
33635;BME280;19972;54.360;10.076;2022-10-31T13:10:03;101747.38;;;18.00;100.00
33635;BME280;19972;54.360;10.076;2022-10-31T13:12:33;101750.94;;;17.19;100.00
33635;BME280;19972;54.360;10.076;2022-10-31T13:17:44;101738.81;;;17.37;100.00
33635;BME280;19972;54.360;10.076;2022-10-31T13:20:23;101736.72;;;17.30;100.00
33635;BME280;19972;54.360;10.076;2022-10-31T13:22:55;101724.94;;;17.08;100.00
33635;BME280;19972;54.360;10.076;2022-10-31T13:25:26;101715.03;;;17.33;100.00
33635;BME280;19972;54.360;10.076;2022-10-31T13:27:57;101702.56;;;16.97;100.00
33635;BME280;19972;54.360;10.076;2022-10-31T13:30:43;101689.81;;;17.11;100.00
33635;BME280;19972;54.360;10.076;2022-10-31T13:38:42;101651.69;;;20.29;100.00
33635;BME280;19972;54.360;10.076;2022-10-31T13:41:35;101671.75;;;21.43;100.00
33635;BME280;19972;54.360;10.076;2022-10-31T13:46:42;101691.63;;;22.99;100.00
33635;BME280;19972;54.360;10.076;2022-10-31T13:49:39;101666.34;;;22.80;100.00
33635;BME280;19972;54.360;10.076;2022-10-31T13:54:38;101641.59;;;22.75;100.00
33635;BME280;19972;54.360;10.076;2022-10-31T13:57:35;101636.28;;;23.01;100.00
33635;BME280;19972;54.360;10.076;2022-10-31T14:02:48;101607.28;;;22.94;100.00
33635;BME280;19972;54.360;10.076;2022-10-31T14:05:25;101608.56;;;21.91;100.00
33635;BME280;19972;54.360;10.076;2022-10-31T14:07:53;101649.50;;;19.21;100.00
33635;BME280;19972;54.360;10.076;2022-10-31T14:10:29;101648.81;;;18.55;100.00
33635;BME280;19972;54.360;10.076;2022-10-31T14:13:18;101648.28;;;17.28;100.00
33635;BME280;19972;54.360;10.076;2022-10-31T14:15:59;101641.50;;;17.00;100.00
33635;BME280;19972;54.360;10.076;2022-10-31T14:18:35;101646.06;;;16.87;100.00
33635;BME280;19972;54.360;10.076;2022-10-31T14:21:25;101645.63;;;18.18;100.00
33635;BME280;19972;54.360;10.076;2022-10-31T14:23:53;101641.81;;;18.09;100.00
33635;BME280;19972;54.360;10.076;2022-10-31T14:28:55;101632.75;;;18.33;100.00
33635;BME280;19972;54.360;10.076;2022-10-31T14:31:42;101623.44;;;17.82;100.00
33635;BME280;19972;54.360;10.076;2022-10-31T14:34:35;101620.75;;;17.02;100.00